Time;durP1;ratioP1;P1;durP2;ratioP2;P2;SDS_P1;SDS_P2;PMS_P1;PMS_P2;Temp;Humidity;BMP_temperature;BMP_pressure;BME280_temperature;BME280_humidity;BME280_pressure;Samples;Min_cycle;Max_cycle;Signal;HPM_P1;HPM_P2
2022/07/17 00:02:16;;;;;;;8.60;7.72;;;;;;;;;;5044260;28;20044;-69
2022/07/17 00:04:42;;;;;;;8.15;7.40;;;;;;;;;;5046997;28;20028;-69
2022/07/17 00:07:08;;;;;;;7.90;7.20;;;;;;;;;;5044888;28;20043;-71
2022/07/17 00:09:33;;;;;;;8.05;7.40;;;;;;;;;;5044881;28;20048;-71
2022/07/17 00:11:59;;;;;;;8.15;7.45;;;;;;;;;;5044161;28;20067;-71
2022/07/17 00:14:25;;;;;;;12.43;7.50;;;;;;;;;;5045660;28;20062;-71
2022/07/17 00:16:51;;;;;;;8.55;7.47;;;;;;;;;;5036143;28;20419;-71
2022/07/17 00:19:17;;;;;;;8.43;7.72;;;;;;;;;;5044778;28;20055;-70
2022/07/17 00:21:42;;;;;;;8.50;7.70;;;;;;;;;;5044535;28;20025;-70
2022/07/17 00:24:08;;;;;;;8.85;8.10;;;;;;;;;;5043512;28;20045;-69
2022/07/17 00:26:34;;;;;;;8.32;7.60;;;;;;;;;;5042945;28;20037;-71
2022/07/17 00:29:01;;;;;;;8.70;8.00;;;;;;;;;;5045728;28;20040;-71
2022/07/17 00:31:27;;;;;;;8.77;7.93;;;;;;;;;;5044507;28;20685;-69
2022/07/17 00:33:52;;;;;;;9.15;8.25;;;;;;;;;;5040929;28;20112;-69
2022/07/17 00:36:18;;;;;;;8.30;7.60;;;;;;;;;;5044808;28;20044;-71
2022/07/17 00:38:43;;;;;;;9.18;8.27;;;;;;;;;;5046772;28;20589;-71
2022/07/17 00:41:09;;;;;;;11.18;8.10;;;;;;;;;;5045195;28;20032;-71
2022/07/17 00:43:35;;;;;;;8.85;7.95;;;;;;;;;;5042466;28;20033;-71
2022/07/17 00:46:02;;;;;;;8.52;7.78;;;;;;;;;;5043327;28;20033;-70
2022/07/17 00:48:28;;;;;;;9.50;7.85;;;;;;;;;;5046138;28;20113;-68
2022/07/17 00:50:55;;;;;;;9.52;8.23;;;;;;;;;;5048516;28;20104;-71
2022/07/17 00:53:21;;;;;;;9.10;8.20;;;;;;;;;;5043271;28;20710;-71
2022/07/17 00:55:48;;;;;;;9.05;7.90;;;;;;;;;;5041383;28;20025;-71
2022/07/17 00:58:23;;;;;;;10.00;8.18;;;;;;;;;;5045496;28;20111;-71
2022/07/17 01:00:50;;;;;;;8.93;8.02;;;;;;;;;;5044918;28;20218;-70
2022/07/17 01:03:17;;;;;;;9.52;8.70;;;;;;;;;;5040846;28;20029;-70
2022/07/17 01:05:42;;;;;;;8.68;7.97;;;;;;;;;;5044005;28;20067;-70
2022/07/17 01:08:09;;;;;;;8.50;7.80;;;;;;;;;;5043973;28;20068;-70
2022/07/17 01:10:35;;;;;;;9.02;8.20;;;;;;;;;;5041167;28;20024;-70
2022/07/17 01:13:00;;;;;;;9.00;8.10;;;;;;;;;;5046001;28;20100;-70
2022/07/17 01:15:26;;;;;;;8.70;8.00;;;;;;;;;;5042021;28;21340;-70
2022/07/17 01:17:51;;;;;;;8.88;8.07;;;;;;;;;;5042721;28;20388;-70
2022/07/17 01:20:17;;;;;;;11.75;8.77;;;;;;;;;;5040947;28;20047;-70
2022/07/17 01:22:52;;;;;;;9.15;8.23;;;;;;;;;;5044531;28;20063;-70
2022/07/17 01:25:22;;;;;;;8.80;8.10;;;;;;;;;;5045039;28;20045;-70
2022/07/17 01:27:48;;;;;;;9.57;8.35;;;;;;;;;;5044087;28;20025;-70
2022/07/17 01:30:14;;;;;;;8.90;8.20;;;;;;;;;;5044284;28;20040;-70
2022/07/17 01:32:41;;;;;;;9.10;8.32;;;;;;;;;;5044980;28;20028;-70
2022/07/17 01:35:09;;;;;;;8.88;8.07;;;;;;;;;;5041377;28;20058;-70
2022/07/17 01:37:35;;;;;;;8.65;7.82;;;;;;;;;;5042694;28;20032;-69
2022/07/17 01:40:01;;;;;;;8.93;8.02;;;;;;;;;;5038920;28;20614;-70
2022/07/17 01:42:28;;;;;;;7.88;7.20;;;;;;;;;;5042966;28;20032;-70
2022/07/17 01:44:55;;;;;;;8.82;7.93;;;;;;;;;;5040401;28;20086;-69
2022/07/17 01:47:21;;;;;;;8.15;7.50;;;;;;;;;;5041897;28;20040;-69
2022/07/17 01:49:49;;;;;;;8.73;7.90;;;;;;;;;;5042013;28;20040;-70
2022/07/17 01:52:15;;;;;;;10.07;7.80;;;;;;;;;;5041480;28;20115;-70
2022/07/17 01:54:42;;;;;;;10.48;7.70;;;;;;;;;;5043075;28;20141;-70
2022/07/17 01:57:08;;;;;;;8.65;7.88;;;;;;;;;;5039488;28;20650;-70
2022/07/17 01:59:35;;;;;;;8.70;8.00;;;;;;;;;;5046119;28;20076;-70
2022/07/17 02:02:00;;;;;;;8.80;8.07;;;;;;;;;;5041680;28;20037;-70
2022/07/17 02:04:26;;;;;;;9.35;8.45;;;;;;;;;;5042991;28;20029;-70
2022/07/17 02:06:55;;;;;;;9.30;8.40;;;;;;;;;;5038385;28;20033;-68
2022/07/17 02:09:22;;;;;;;10.18;9.18;;;;;;;;;;5042602;28;20040;-68
2022/07/17 02:11:48;;;;;;;9.75;8.75;;;;;;;;;;5030368;28;20028;-68
2022/07/17 02:14:13;;;;;;;9.23;8.32;;;;;;;;;;5038076;28;20056;-71
2022/07/17 02:16:39;;;;;;;9.40;8.60;;;;;;;;;;5041704;28;20507;-69
2022/07/17 02:19:05;;;;;;;9.98;9.07;;;;;;;;;;5042778;28;20091;-68
2022/07/17 02:21:30;;;;;;;9.30;8.50;;;;;;;;;;5045118;28;20041;-70
2022/07/17 02:23:56;;;;;;;10.45;9.10;;;;;;;;;;5039460;28;20021;-70
2022/07/17 02:26:21;;;;;;;9.50;8.60;;;;;;;;;;5043524;28;20041;-70
2022/07/17 02:28:47;;;;;;;10.23;8.88;;;;;;;;;;5044640;28;20030;-70
2022/07/17 02:31:13;;;;;;;10.63;8.98;;;;;;;;;;5047977;28;20048;-71
2022/07/17 02:33:38;;;;;;;9.75;8.95;;;;;;;;;;5046184;28;20033;-70
2022/07/17 02:36:04;;;;;;;11.15;9.18;;;;;;;;;;5047921;28;20063;-70
2022/07/17 02:38:30;;;;;;;11.57;9.57;;;;;;;;;;5046823;28;20517;-70
2022/07/17 02:40:55;;;;;;;10.52;9.52;;;;;;;;;;5046069;28;20037;-70
2022/07/17 02:43:21;;;;;;;9.77;8.98;;;;;;;;;;5046335;28;20037;-69
2022/07/17 02:45:47;;;;;;;9.90;9.05;;;;;;;;;;5047827;28;20634;-70
2022/07/17 02:48:12;;;;;;;11.93;9.18;;;;;;;;;;5047122;28;20033;-71
2022/07/17 02:50:38;;;;;;;10.25;9.02;;;;;;;;;;5046930;28;20033;-69
2022/07/17 02:53:03;;;;;;;9.52;8.70;;;;;;;;;;5046363;28;20044;-69
2022/07/17 02:55:29;;;;;;;11.27;8.93;;;;;;;;;;5044372;28;20061;-68
2022/07/17 02:57:55;;;;;;;9.73;8.80;;;;;;;;;;5045417;28;20075;-69
2022/07/17 03:00:20;;;;;;;10.07;8.95;;;;;;;;;;5049581;28;20037;-69
2022/07/17 03:02:47;;;;;;;10.20;9.20;;;;;;;;;;5046592;28;20444;-71
2022/07/17 03:05:14;;;;;;;9.93;9.02;;;;;;;;;;5047526;28;20040;-69
2022/07/17 03:07:40;;;;;;;9.85;8.95;;;;;;;;;;5046228;28;20539;-70
2022/07/17 03:10:07;;;;;;;10.38;9.18;;;;;;;;;;5047575;28;20037;-70
2022/07/17 03:12:33;;;;;;;9.48;8.57;;;;;;;;;;5043318;28;20071;-70
2022/07/17 03:14:59;;;;;;;9.82;9.02;;;;;;;;;;5044342;28;20084;-70
2022/07/17 03:17:24;;;;;;;10.10;9.18;;;;;;;;;;5046477;28;20021;-70
2022/07/17 03:19:50;;;;;;;10.77;9.32;;;;;;;;;;5043593;28;20037;-70
2022/07/17 03:22:16;;;;;;;10.43;9.43;;;;;;;;;;5048543;28;20029;-69
2022/07/17 03:24:41;;;;;;;10.15;9.20;;;;;;;;;;5043952;28;20040;-69
2022/07/17 03:27:07;;;;;;;10.02;9.23;;;;;;;;;;5047917;28;20072;-69
2022/07/17 03:29:33;;;;;;;9.98;8.98;;;;;;;;;;5041899;28;20078;-69
2022/07/17 03:31:58;;;;;;;9.00;8.30;;;;;;;;;;5047001;28;20037;-69
2022/07/17 03:34:24;;;;;;;10.38;9.38;;;;;;;;;;5042651;28;20399;-69
2022/07/17 03:36:50;;;;;;;10.20;9.30;;;;;;;;;;5045206;28;20032;-69
2022/07/17 03:39:16;;;;;;;10.38;9.32;;;;;;;;;;5045328;28;20041;-69
2022/07/17 03:41:41;;;;;;;10.05;9.15;;;;;;;;;;5046653;28;20111;-69
2022/07/17 03:44:07;;;;;;;11.15;9.27;;;;;;;;;;5043303;28;20036;-69
2022/07/17 03:46:34;;;;;;;10.13;9.13;;;;;;;;;;5044192;28;20105;-69
2022/07/17 03:49:00;;;;;;;10.20;9.20;;;;;;;;;;5041728;28;20048;-69
2022/07/17 03:51:26;;;;;;;10.00;9.10;;;;;;;;;;5046103;28;20574;-69
2022/07/17 03:53:51;;;;;;;9.80;8.75;;;;;;;;;;5045754;28;20032;-69
2022/07/17 03:56:18;;;;;;;9.63;8.80;;;;;;;;;;5043262;28;20400;-67
2022/07/17 03:58:44;;;;;;;12.20;9.10;;;;;;;;;;5048052;28;20079;-70
2022/07/17 04:01:09;;;;;;;11.40;9.45;;;;;;;;;;5043210;28;20037;-69
2022/07/17 04:03:35;;;;;;;10.30;9.32;;;;;;;;;;5038549;28;20029;-69
2022/07/17 04:06:00;;;;;;;10.50;9.50;;;;;;;;;;5047124;28;20095;-67
2022/07/17 04:08:26;;;;;;;10.40;9.50;;;;;;;;;;5047523;28;20037;-67
2022/07/17 04:10:52;;;;;;;10.77;9.70;;;;;;;;;;5044172;28;20063;-69
2022/07/17 04:13:17;;;;;;;16.95;9.65;;;;;;;;;;5034035;28;20029;-67
2022/07/17 04:15:49;;;;;;;10.70;9.60;;;;;;;;;;5037703;28;20111;-69
2022/07/17 04:18:20;;;;;;;10.45;9.55;;;;;;;;;;5042764;28;20025;-67
2022/07/17 04:20:47;;;;;;;10.00;9.20;;;;;;;;;;5046649;28;20143;-67
2022/07/17 04:23:13;;;;;;;11.75;9.07;;;;;;;;;;5045441;28;20044;-67
2022/07/17 04:25:39;;;;;;;9.25;8.55;;;;;;;;;;5036876;28;20029;-67
2022/07/17 04:28:05;;;;;;;9.75;8.75;;;;;;;;;;5045924;28;20053;-68
2022/07/17 04:30:31;;;;;;;10.00;9.18;;;;;;;;;;5044643;28;20033;-68
2022/07/17 04:37:04;;;;;;;9.80;8.80;;;;;;;;;;5038364;28;20059;-68
2022/07/17 04:39:30;;;;;;;10.00;8.90;;;;;;;;;;5035141;28;20132;-68
2022/07/17 04:41:56;;;;;;;9.35;8.52;;;;;;;;;;5035994;28;20124;-67
2022/07/17 04:48:27;;;;;;;9.00;8.30;;;;;;;;;;5027348;28;20060;-67
2022/07/17 04:50:52;;;;;;;12.98;8.43;;;;;;;;;;5036751;28;20028;-69
2022/07/17 04:53:18;;;;;;;8.68;7.88;;;;;;;;;;5037502;28;20048;-70
2022/07/17 04:55:43;;;;;;;9.63;8.70;;;;;;;;;;5044350;28;20025;-69
2022/07/17 04:58:09;;;;;;;9.43;8.60;;;;;;;;;;5042677;28;20048;-69
2022/07/17 05:00:34;;;;;;;9.50;8.63;;;;;;;;;;5045486;28;20143;-69
2022/07/17 05:03:00;;;;;;;8.70;8.00;;;;;;;;;;5039122;28;20049;-69
2022/07/17 05:05:26;;;;;;;9.27;8.50;;;;;;;;;;5040360;28;20027;-68
2022/07/17 05:07:51;;;;;;;9.70;8.80;;;;;;;;;;5045750;28;20037;-69
2022/07/17 05:10:17;;;;;;;9.90;8.57;;;;;;;;;;5041647;28;20110;-69
2022/07/17 05:12:43;;;;;;;10.52;9.23;;;;;;;;;;5044651;28;20111;-69
2022/07/17 05:15:08;;;;;;;9.40;8.50;;;;;;;;;;5041398;28;20068;-69
2022/07/17 05:17:34;;;;;;;9.43;8.63;;;;;;;;;;5042820;28;20036;-69
2022/07/17 05:19:59;;;;;;;9.35;8.48;;;;;;;;;;5041816;28;20488;-69
2022/07/17 05:22:25;;;;;;;9.70;8.55;;;;;;;;;;5045774;28;20468;-69
2022/07/17 05:24:51;;;;;;;9.27;8.57;;;;;;;;;;5039031;28;20107;-67
2022/07/17 05:27:16;;;;;;;9.48;8.68;;;;;;;;;;5045393;28;20131;-68
2022/07/17 05:29:42;;;;;;;9.48;8.70;;;;;;;;;;5038381;28;20025;-68
2022/07/17 05:32:07;;;;;;;9.48;8.60;;;;;;;;;;5044982;28;20041;-67
2022/07/17 05:34:33;;;;;;;10.00;8.45;;;;;;;;;;5042496;28;20075;-68
2022/07/17 05:36:58;;;;;;;9.52;8.52;;;;;;;;;;5045057;28;20069;-69
2022/07/17 05:39:24;;;;;;;9.93;8.50;;;;;;;;;;5039677;28;20041;-70
2022/07/17 05:41:49;;;;;;;9.13;8.23;;;;;;;;;;5042126;28;20044;-68
2022/07/17 05:44:15;;;;;;;9.05;8.27;;;;;;;;;;5044009;28;20037;-68
2022/07/17 05:46:41;;;;;;;9.27;8.38;;;;;;;;;;5045671;28;20048;-69
2022/07/17 05:49:06;;;;;;;9.40;8.50;;;;;;;;;;5043590;28;20059;-68
2022/07/17 05:51:32;;;;;;;9.43;8.55;;;;;;;;;;5043976;28;20091;-67
2022/07/17 05:53:57;;;;;;;9.20;8.40;;;;;;;;;;5040510;28;20103;-69
2022/07/17 05:56:23;;;;;;;9.18;8.27;;;;;;;;;;5042807;28;20048;-69
2022/07/17 05:58:49;;;;;;;8.77;8.07;;;;;;;;;;5038125;28;20037;-69
2022/07/17 06:01:14;;;;;;;8.95;8.20;;;;;;;;;;5044557;28;20060;-67
2022/07/17 06:03:40;;;;;;;9.40;8.60;;;;;;;;;;5049772;28;20028;-69
2022/07/17 06:06:06;;;;;;;9.00;8.10;;;;;;;;;;5048999;28;20111;-67
2022/07/17 06:08:31;;;;;;;8.65;7.93;;;;;;;;;;5050725;28;20033;-67
2022/07/17 06:10:57;;;;;;;8.30;7.50;;;;;;;;;;5048970;28;20044;-67
2022/07/17 06:13:23;;;;;;;8.48;7.78;;;;;;;;;;5047889;28;20131;-67
2022/07/17 06:15:48;;;;;;;8.75;7.90;;;;;;;;;;5044857;28;20041;-69
2022/07/17 06:18:14;;;;;;;9.07;8.00;;;;;;;;;;5048175;28;20017;-67
2022/07/17 06:20:39;;;;;;;8.55;7.85;;;;;;;;;;5045304;28;20067;-67
2022/07/17 06:23:05;;;;;;;9.90;8.15;;;;;;;;;;5048407;28;20667;-68
2022/07/17 06:25:30;;;;;;;8.80;7.90;;;;;;;;;;5035542;28;20407;-67
2022/07/17 06:27:56;;;;;;;8.38;7.40;;;;;;;;;;5041261;28;20029;-67
2022/07/17 06:30:21;;;;;;;8.32;7.63;;;;;;;;;;5047104;28;20040;-69
2022/07/17 06:32:47;;;;;;;8.40;7.60;;;;;;;;;;5049854;28;21023;-67
2022/07/17 06:35:12;;;;;;;8.07;7.35;;;;;;;;;;5044729;28;20029;-68
2022/07/17 06:37:38;;;;;;;8.00;7.30;;;;;;;;;;5044673;28;20488;-69
2022/07/17 06:40:05;;;;;;;8.43;7.72;;;;;;;;;;5046998;28;20033;-69
2022/07/17 06:42:30;;;;;;;8.15;7.35;;;;;;;;;;5046777;28;20451;-67
2022/07/17 06:44:56;;;;;;;8.20;7.50;;;;;;;;;;5042963;28;20032;-69
2022/07/17 06:47:22;;;;;;;8.27;7.07;;;;;;;;;;5042018;28;20056;-70
2022/07/17 06:49:48;;;;;;;7.93;7.15;;;;;;;;;;5043554;28;20040;-70
2022/07/17 06:52:13;;;;;;;8.65;7.05;;;;;;;;;;5046498;28;20432;-70
2022/07/17 06:54:39;;;;;;;8.65;6.78;;;;;;;;;;5047749;28;20037;-68
2022/07/17 06:57:05;;;;;;;7.30;6.72;;;;;;;;;;5048963;28;20040;-69
2022/07/17 06:59:30;;;;;;;7.75;7.00;;;;;;;;;;5049741;28;20029;-69
2022/07/17 07:01:56;;;;;;;7.32;6.65;;;;;;;;;;5047009;28;20103;-69
2022/07/17 07:04:21;;;;;;;6.40;6.00;;;;;;;;;;5047500;28;20040;-68
2022/07/17 07:06:47;;;;;;;8.68;7.03;;;;;;;;;;5048279;28;20032;-68
2022/07/17 07:09:13;;;;;;;7.22;6.50;;;;;;;;;;5048411;28;20543;-66
2022/07/17 07:11:39;;;;;;;6.72;6.07;;;;;;;;;;5042883;28;20721;-68
2022/07/17 07:14:06;;;;;;;6.93;6.32;;;;;;;;;;5046590;28;20065;-68
2022/07/17 07:16:32;;;;;;;8.02;6.40;;;;;;;;;;5047948;28;20087;-68
2022/07/17 07:18:57;;;;;;;6.60;6.10;;;;;;;;;;5047965;28;20045;-68
2022/07/17 07:21:24;;;;;;;6.95;6.10;;;;;;;;;;5046720;28;20029;-68
2022/07/17 07:23:50;;;;;;;6.72;6.30;;;;;;;;;;5043098;28;20040;-68
2022/07/17 07:26:16;;;;;;;6.50;6.00;;;;;;;;;;5036758;28;20025;-68
2022/07/17 07:28:41;;;;;;;6.93;6.32;;;;;;;;;;5042207;28;20036;-68
2022/07/17 07:31:07;;;;;;;7.35;6.65;;;;;;;;;;5048926;28;20639;-68
2022/07/17 07:33:33;;;;;;;7.00;6.40;;;;;;;;;;5040858;28;20044;-68
2022/07/17 07:35:59;;;;;;;7.15;6.57;;;;;;;;;;5038249;28;20052;-68
2022/07/17 07:38:24;;;;;;;7.03;6.35;;;;;;;;;;5043504;28;20032;-68
2022/07/17 07:40:50;;;;;;;7.00;6.40;;;;;;;;;;5041124;28;20041;-68
2022/07/17 07:43:16;;;;;;;6.50;6.10;;;;;;;;;;5038561;28;20041;-68
2022/07/17 07:45:41;;;;;;;6.72;6.22;;;;;;;;;;5047053;28;20042;-68
2022/07/17 07:48:07;;;;;;;7.10;6.50;;;;;;;;;;5043009;28;20040;-68
2022/07/17 07:50:32;;;;;;;7.18;6.55;;;;;;;;;;5049047;28;20053;-68
2022/07/17 07:52:58;;;;;;;7.35;6.30;;;;;;;;;;5043687;28;20094;-68
2022/07/17 07:55:25;;;;;;;6.80;6.30;;;;;;;;;;5044241;28;20043;-68
2022/07/17 07:58:05;;;;;;;6.60;6.20;;;;;;;;;;5041253;28;20586;-68
2022/07/17 08:00:31;;;;;;;7.70;6.30;;;;;;;;;;5043961;28;20481;-69
2022/07/17 08:02:56;;;;;;;7.22;6.38;;;;;;;;;;5045053;28;20043;-69
2022/07/17 08:05:22;;;;;;;8.05;6.75;;;;;;;;;;5038466;28;20808;-69
2022/07/17 08:07:48;;;;;;;7.38;6.78;;;;;;;;;;5042309;28;20031;-69
2022/07/17 08:10:13;;;;;;;7.47;6.43;;;;;;;;;;5043015;28;20033;-67
2022/07/17 08:12:39;;;;;;;6.97;6.57;;;;;;;;;;5039248;28;20040;-69
2022/07/17 08:15:05;;;;;;;7.47;6.68;;;;;;;;;;5035998;28;20386;-69
2022/07/17 08:17:31;;;;;;;6.65;6.15;;;;;;;;;;5046010;28;20729;-68
2022/07/17 08:19:56;;;;;;;6.43;5.80;;;;;;;;;;5040414;28;20044;-69
2022/07/17 08:22:22;;;;;;;6.70;6.20;;;;;;;;;;5045544;28;20049;-66
2022/07/17 08:24:48;;;;;;;6.88;6.28;;;;;;;;;;5039188;28;20034;-69
2022/07/17 08:27:13;;;;;;;7.05;6.13;;;;;;;;;;5041491;28;20033;-69
2022/07/17 08:29:39;;;;;;;6.85;6.20;;;;;;;;;;5044459;28;20611;-70
2022/07/17 08:32:05;;;;;;;6.65;6.13;;;;;;;;;;5044563;28;20113;-69
2022/07/17 08:34:30;;;;;;;6.80;6.38;;;;;;;;;;5042533;28;20037;-67
2022/07/17 08:36:59;;;;;;;6.85;6.35;;;;;;;;;;5047935;28;20028;-68
2022/07/17 08:39:24;;;;;;;7.13;6.50;;;;;;;;;;5047059;28;20094;-68
2022/07/17 08:41:51;;;;;;;6.95;6.45;;;;;;;;;;5047633;28;20447;-67
2022/07/17 08:44:17;;;;;;;6.47;6.07;;;;;;;;;;5042795;28;20044;-67
2022/07/17 08:46:43;;;;;;;6.75;6.10;;;;;;;;;;5041273;28;20033;-68
2022/07/17 08:49:11;;;;;;;6.78;6.20;;;;;;;;;;5043269;28;20511;-68
2022/07/17 08:51:37;;;;;;;6.30;5.90;;;;;;;;;;5039113;28;20067;-68
2022/07/17 08:54:03;;;;;;;6.22;5.70;;;;;;;;;;5042966;28;20563;-68
2022/07/17 08:56:29;;;;;;;6.10;5.50;;;;;;;;;;5041271;28;20064;-69
2022/07/17 08:58:55;;;;;;;6.22;5.72;;;;;;;;;;5041317;28;20040;-68
2022/07/17 09:01:21;;;;;;;6.28;5.78;;;;;;;;;;5042614;28;20036;-69
2022/07/17 09:03:59;;;;;;;6.35;5.85;;;;;;;;;;5043399;28;20037;-69
2022/07/17 09:06:26;;;;;;;5.82;5.32;;;;;;;;;;5038834;28;20116;-70
2022/07/17 09:09:11;;;;;;;6.25;5.75;;;;;;;;;;5041623;28;20263;-69
2022/07/17 09:11:50;;;;;;;6.22;5.82;;;;;;;;;;5039626;28;20032;-67
2022/07/17 09:14:16;;;;;;;5.82;5.28;;;;;;;;;;5040327;28;20603;-67
2022/07/17 09:16:55;;;;;;;8.50;5.70;;;;;;;;;;5040306;28;20067;-69
2022/07/17 09:19:33;;;;;;;6.07;5.68;;;;;;;;;;5039049;28;20037;-70
2022/07/17 09:22:09;;;;;;;6.05;5.38;;;;;;;;;;5041217;28;20052;-67
2022/07/17 09:24:54;;;;;;;5.45;5.07;;;;;;;;;;5038836;28;20041;-70
2022/07/17 09:27:23;;;;;;;7.43;5.00;;;;;;;;;;5042345;28;20438;-68
2022/07/17 09:30:03;;;;;;;6.20;5.78;;;;;;;;;;5040679;28;20076;-67
2022/07/17 09:32:33;;;;;;;5.63;5.22;;;;;;;;;;5043356;28;20171;-68
2022/07/17 09:35:00;;;;;;;5.80;5.38;;;;;;;;;;5044506;28;20105;-68
2022/07/17 09:37:28;;;;;;;5.63;5.30;;;;;;;;;;5041130;28;20029;-68
2022/07/17 09:39:55;;;;;;;5.28;4.88;;;;;;;;;;5042235;28;20037;-68
2022/07/17 09:42:28;;;;;;;5.47;5.10;;;;;;;;;;5041956;28;20032;-68
2022/07/17 09:44:57;;;;;;;5.10;4.70;;;;;;;;;;5023283;28;20548;-68
2022/07/17 09:47:24;;;;;;;5.47;5.07;;;;;;;;;;5037118;28;20067;-68
2022/07/17 09:49:53;;;;;;;5.53;5.10;;;;;;;;;;5044284;28;20068;-68
2022/07/17 09:52:19;;;;;;;5.60;5.20;;;;;;;;;;5039349;28;20527;-68
2022/07/17 09:54:47;;;;;;;5.40;5.00;;;;;;;;;;5042511;28;20477;-68
2022/07/17 09:57:33;;;;;;;5.70;5.30;;;;;;;;;;5037909;28;20037;-68
2022/07/17 10:00:03;;;;;;;5.53;5.15;;;;;;;;;;5042321;28;20316;-68
2022/07/17 10:02:42;;;;;;;5.90;5.50;;;;;;;;;;5039995;28;20033;-68
2022/07/17 10:05:15;;;;;;;5.95;5.40;;;;;;;;;;5040012;28;20392;-68
2022/07/17 10:07:45;;;;;;;5.95;5.40;;;;;;;;;;5043637;28;20037;-68
2022/07/17 10:10:13;;;;;;;6.05;5.47;;;;;;;;;;5041097;28;20511;-68
2022/07/17 10:12:42;;;;;;;6.10;5.60;;;;;;;;;;5041303;28;20363;-67
2022/07/17 10:15:08;;;;;;;5.80;5.40;;;;;;;;;;5039529;28;20296;-68
2022/07/17 10:17:34;;;;;;;6.20;5.53;;;;;;;;;;5044062;28;20456;-68
2022/07/17 10:20:00;;;;;;;5.78;5.20;;;;;;;;;;5034094;28;20087;-68
2022/07/17 10:22:26;;;;;;;6.10;5.50;;;;;;;;;;5042226;28;20029;-68
2022/07/17 10:24:54;;;;;;;5.88;5.38;;;;;;;;;;5040376;28;20040;-68
2022/07/17 10:27:25;;;;;;;5.85;5.45;;;;;;;;;;5042639;28;20033;-68
2022/07/17 10:30:02;;;;;;;6.95;5.70;;;;;;;;;;5036883;28;20040;-68
2022/07/17 10:32:28;;;;;;;5.40;4.90;;;;;;;;;;5041030;28;20352;-67
2022/07/17 10:35:02;;;;;;;7.88;5.38;;;;;;;;;;5040798;28;20110;-68
2022/07/17 10:37:37;;;;;;;5.95;5.50;;;;;;;;;;5041278;28;20028;-68
2022/07/17 10:40:09;;;;;;;6.20;5.72;;;;;;;;;;5041650;28;20115;-67
2022/07/17 10:42:53;;;;;;;5.70;5.30;;;;;;;;;;5039398;28;20045;-67
2022/07/17 10:45:28;;;;;;;7.85;5.20;;;;;;;;;;5042105;28;20566;-67
2022/07/17 10:47:55;;;;;;;6.22;5.72;;;;;;;;;;5042322;28;20075;-68
2022/07/17 10:50:28;;;;;;;5.60;5.22;;;;;;;;;;5046201;28;20614;-68
2022/07/17 10:52:57;;;;;;;5.50;5.10;;;;;;;;;;5045674;28;20128;-67
2022/07/17 10:55:23;;;;;;;5.78;5.30;;;;;;;;;;5045442;28;20119;-69
2022/07/17 10:57:49;;;;;;;6.00;5.60;;;;;;;;;;5038288;28;20159;-68
2022/07/17 11:00:16;;;;;;;6.22;5.68;;;;;;;;;;5041546;28;20033;-69
2022/07/17 11:02:43;;;;;;;5.43;4.93;;;;;;;;;;5047795;28;20029;-67
2022/07/17 11:05:10;;;;;;;5.57;5.22;;;;;;;;;;5044760;28;20114;-69
2022/07/17 11:07:36;;;;;;;5.78;5.20;;;;;;;;;;5047564;28;20032;-69
2022/07/17 11:10:02;;;;;;;5.18;4.88;;;;;;;;;;5041764;28;20060;-68
2022/07/17 11:12:34;;;;;;;5.72;5.38;;;;;;;;;;5046118;28;20419;-67
2022/07/17 11:15:01;;;;;;;5.75;5.25;;;;;;;;;;5043251;28;20040;-68
2022/07/17 11:17:27;;;;;;;5.82;5.38;;;;;;;;;;5047575;28;20772;-67
2022/07/17 11:19:53;;;;;;;6.38;5.97;;;;;;;;;;5041014;28;20029;-68
2022/07/17 11:22:23;;;;;;;6.28;5.70;;;;;;;;;;5045860;28;20071;-67
2022/07/17 11:24:50;;;;;;;6.05;5.50;;;;;;;;;;5041327;28;20507;-68
2022/07/17 11:27:25;;;;;;;5.65;5.25;;;;;;;;;;5042796;28;20234;-67
2022/07/17 11:29:53;;;;;;;5.78;5.38;;;;;;;;;;5039498;28;20399;-68
2022/07/17 11:32:19;;;;;;;5.70;5.30;;;;;;;;;;5044826;28;20376;-67
2022/07/17 11:34:45;;;;;;;5.57;5.18;;;;;;;;;;5046542;28;20037;-68
2022/07/17 11:37:12;;;;;;;5.72;5.32;;;;;;;;;;5042067;28;20064;-68
2022/07/17 11:39:49;;;;;;;5.55;5.03;;;;;;;;;;5043922;28;20425;-68
2022/07/17 11:42:20;;;;;;;5.60;5.20;;;;;;;;;;5046255;28;20033;-68
2022/07/17 11:44:51;;;;;;;5.75;5.35;;;;;;;;;;5046255;28;20570;-68
2022/07/17 11:47:26;;;;;;;5.70;5.30;;;;;;;;;;5040400;28;20064;-68
2022/07/17 11:50:03;;;;;;;5.93;5.50;;;;;;;;;;5045561;28;20033;-68
2022/07/17 11:52:40;;;;;;;5.72;5.25;;;;;;;;;;5042716;28;20043;-68
2022/07/17 11:55:06;;;;;;;5.80;5.40;;;;;;;;;;5042255;28;20043;-68
2022/07/17 11:57:42;;;;;;;5.47;5.07;;;;;;;;;;5037702;28;20069;-68
2022/07/17 12:00:09;;;;;;;5.90;5.50;;;;;;;;;;5043609;28;20029;-68
2022/07/17 12:02:35;;;;;;;6.25;5.65;;;;;;;;;;5041527;28;20079;-69
2022/07/17 12:05:01;;;;;;;5.88;5.50;;;;;;;;;;5044381;28;20037;-68
2022/07/17 12:07:45;;;;;;;5.85;5.45;;;;;;;;;;5041895;28;20127;-68
2022/07/17 12:10:17;;;;;;;5.47;5.18;;;;;;;;;;5041706;28;20455;-68
2022/07/17 12:13:01;;;;;;;5.90;5.50;;;;;;;;;;5045576;28;20082;-68
2022/07/17 12:15:48;;;;;;;5.85;5.45;;;;;;;;;;5038483;28;20052;-68
2022/07/17 12:18:28;;;;;;;5.60;5.30;;;;;;;;;;5061823;28;20040;-68
2022/07/17 12:20:58;;;;;;;5.90;5.50;;;;;;;;;;5043989;28;20401;-68
2022/07/17 12:23:29;;;;;;;6.20;5.63;;;;;;;;;;5046494;28;20029;-68
2022/07/17 12:26:16;;;;;;;5.85;5.45;;;;;;;;;;5042836;28;20121;-68
2022/07/17 12:28:43;;;;;;;5.55;5.25;;;;;;;;;;5045390;28;20028;-68
2022/07/17 12:31:09;;;;;;;5.60;5.20;;;;;;;;;;5046764;28;20591;-68
2022/07/17 12:33:35;;;;;;;5.60;5.28;;;;;;;;;;5045955;28;20091;-68
2022/07/17 12:36:00;;;;;;;5.57;5.18;;;;;;;;;;5044867;28;20045;-68
2022/07/17 12:38:26;;;;;;;6.50;6.10;;;;;;;;;;5043713;28;20461;-68
2022/07/17 12:40:52;;;;;;;5.93;5.50;;;;;;;;;;5045484;28;20029;-68
2022/07/17 12:43:18;;;;;;;5.68;5.28;;;;;;;;;;5042822;28;20033;-68
2022/07/17 12:45:44;;;;;;;6.30;5.20;;;;;;;;;;5046488;28;20261;-68
2022/07/17 12:48:09;;;;;;;5.63;5.13;;;;;;;;;;5041981;28;20036;-68
2022/07/17 12:50:35;;;;;;;6.00;5.60;;;;;;;;;;5044743;28;20097;-68
2022/07/17 12:53:01;;;;;;;6.65;5.45;;;;;;;;;;5043102;28;20500;-68
2022/07/17 12:55:27;;;;;;;5.90;5.40;;;;;;;;;;5044026;28;20038;-68
2022/07/17 12:57:52;;;;;;;5.20;4.88;;;;;;;;;;5043713;28;20025;-68
2022/07/17 13:00:18;;;;;;;6.00;5.60;;;;;;;;;;5044465;28;20040;-68
2022/07/17 13:02:43;;;;;;;5.82;5.38;;;;;;;;;;5043458;28;20083;-68
2022/07/17 13:05:09;;;;;;;5.90;5.50;;;;;;;;;;5041498;28;20029;-68
2022/07/17 13:07:35;;;;;;;5.80;5.50;;;;;;;;;;5041200;28;20554;-68
2022/07/17 13:10:00;;;;;;;5.90;5.50;;;;;;;;;;5039787;28;20049;-68
2022/07/17 13:12:29;;;;;;;5.90;5.50;;;;;;;;;;5047262;28;20563;-68
2022/07/17 13:14:55;;;;;;;5.72;5.32;;;;;;;;;;5041155;28;20104;-69
2022/07/17 13:17:20;;;;;;;5.50;5.10;;;;;;;;;;5045798;28;20071;-68
2022/07/17 13:19:46;;;;;;;5.75;5.30;;;;;;;;;;5043001;28;20028;-68
2022/07/17 13:22:12;;;;;;;5.40;5.10;;;;;;;;;;5046233;28;20071;-68
2022/07/17 13:24:37;;;;;;;5.63;5.22;;;;;;;;;;5042917;28;20120;-68
2022/07/17 13:27:03;;;;;;;5.50;5.10;;;;;;;;;;5044499;28;20124;-68
2022/07/17 13:29:28;;;;;;;5.35;4.85;;;;;;;;;;5042354;28;20041;-68
2022/07/17 13:31:55;;;;;;;5.70;5.30;;;;;;;;;;5047081;28;20033;-68
2022/07/17 13:34:21;;;;;;;5.13;4.82;;;;;;;;;;5041702;28;20044;-68
2022/07/17 13:36:48;;;;;;;5.68;5.15;;;;;;;;;;5043392;28;20029;-68
2022/07/17 13:39:14;;;;;;;5.20;4.90;;;;;;;;;;5040822;28;20404;-68
2022/07/17 13:41:40;;;;;;;5.95;5.20;;;;;;;;;;5041747;28;20031;-68
2022/07/17 13:44:06;;;;;;;5.10;4.80;;;;;;;;;;5043952;28;20037;-68
2022/07/17 13:46:32;;;;;;;5.57;5.28;;;;;;;;;;5045671;28;20039;-68
2022/07/17 13:48:57;;;;;;;5.40;5.10;;;;;;;;;;5044614;28;20048;-68
2022/07/17 13:51:23;;;;;;;5.47;5.07;;;;;;;;;;5045473;28;20021;-68
2022/07/17 13:53:49;;;;;;;5.57;5.20;;;;;;;;;;5042981;28;20532;-68
2022/07/17 13:56:14;;;;;;;5.28;4.90;;;;;;;;;;5041880;28;20044;-68
2022/07/17 13:58:40;;;;;;;5.55;5.18;;;;;;;;;;5046698;28;20061;-68
2022/07/17 14:01:06;;;;;;;5.80;5.30;;;;;;;;;;5042963;28;20432;-68
2022/07/17 14:03:32;;;;;;;5.55;5.18;;;;;;;;;;5034388;28;20056;-68
2022/07/17 14:05:58;;;;;;;5.45;5.10;;;;;;;;;;5035357;28;20405;-68
2022/07/17 14:08:23;;;;;;;5.50;5.10;;;;;;;;;;5045334;28;20091;-68
2022/07/17 14:10:49;;;;;;;7.00;5.38;;;;;;;;;;5041530;28;20060;-68
2022/07/17 14:13:15;;;;;;;5.60;5.30;;;;;;;;;;5043615;28;20028;-68
2022/07/17 14:15:41;;;;;;;5.63;5.32;;;;;;;;;;5040954;28;20048;-68
2022/07/17 14:18:07;;;;;;;5.53;5.20;;;;;;;;;;5043304;28;20317;-68
2022/07/17 14:20:32;;;;;;;7.63;5.78;;;;;;;;;;5041203;28;20045;-68
2022/07/17 14:22:58;;;;;;;5.55;5.18;;;;;;;;;;5044757;28;20037;-68
2022/07/17 14:25:23;;;;;;;5.55;5.07;;;;;;;;;;5048686;28;20036;-68
2022/07/17 14:27:49;;;;;;;5.72;5.32;;;;;;;;;;5044836;28;20036;-67
2022/07/17 14:30:15;;;;;;;6.15;5.55;;;;;;;;;;5046062;28;20108;-68
2022/07/17 14:32:41;;;;;;;5.70;5.30;;;;;;;;;;5044819;28;20044;-68
2022/07/17 14:35:07;;;;;;;5.80;5.40;;;;;;;;;;5047085;28;20036;-68
2022/07/17 14:37:33;;;;;;;5.35;5.05;;;;;;;;;;5045616;28;20412;-68
2022/07/17 14:39:58;;;;;;;5.63;5.32;;;;;;;;;;5045856;28;20052;-68
2022/07/17 14:42:24;;;;;;;5.95;5.40;;;;;;;;;;5044693;28;20106;-68
2022/07/17 14:44:50;;;;;;;5.75;5.45;;;;;;;;;;5043543;28;20182;-68
2022/07/17 14:47:16;;;;;;;5.97;5.50;;;;;;;;;;5041259;28;20537;-68
2022/07/17 14:49:42;;;;;;;5.90;5.50;;;;;;;;;;5044774;28;20116;-68